sensor_id;sensor_type;location;lat;lon;timestamp;P1;durP1;ratioP1;P2;durP2;ratioP2
36411;SDS011;22445;52.100;5.176;2023-08-07T00:00:34;6.68;;;2.50;;
36411;SDS011;22445;52.100;5.176;2023-08-07T00:03:00;11.30;;;2.60;;
36411;SDS011;22445;52.100;5.176;2023-08-07T00:05:26;14.40;;;3.50;;
36411;SDS011;22445;52.100;5.176;2023-08-07T00:07:52;11.02;;;2.90;;
36411;SDS011;22445;52.100;5.176;2023-08-07T00:10:18;12.18;;;3.45;;
36411;SDS011;22445;52.100;5.176;2023-08-07T00:12:44;13.25;;;3.28;;
36411;SDS011;22445;52.100;5.176;2023-08-07T00:15:09;12.18;;;4.28;;
36411;SDS011;22445;52.100;5.176;2023-08-07T00:17:36;14.40;;;3.55;;
36411;SDS011;22445;52.100;5.176;2023-08-07T00:20:02;7.82;;;3.10;;
36411;SDS011;22445;52.100;5.176;2023-08-07T00:22:28;11.13;;;3.50;;
36411;SDS011;22445;52.100;5.176;2023-08-07T00:24:54;15.18;;;3.47;;
36411;SDS011;22445;52.100;5.176;2023-08-07T00:27:19;13.70;;;3.78;;
36411;SDS011;22445;52.100;5.176;2023-08-07T00:29:45;17.63;;;3.88;;
36411;SDS011;22445;52.100;5.176;2023-08-07T00:32:11;8.55;;;3.10;;
36411;SDS011;22445;52.100;5.176;2023-08-07T00:34:36;15.02;;;3.30;;
36411;SDS011;22445;52.100;5.176;2023-08-07T00:37:02;13.45;;;3.17;;
36411;SDS011;22445;52.100;5.176;2023-08-07T00:39:28;11.75;;;3.28;;
36411;SDS011;22445;52.100;5.176;2023-08-07T00:41:53;11.40;;;2.92;;
36411;SDS011;22445;52.100;5.176;2023-08-07T00:44:19;11.43;;;2.65;;
36411;SDS011;22445;52.100;5.176;2023-08-07T00:46:45;11.77;;;2.75;;
36411;SDS011;22445;52.100;5.176;2023-08-07T00:49:11;13.68;;;3.35;;
36411;SDS011;22445;52.100;5.176;2023-08-07T00:51:37;10.20;;;3.28;;
36411;SDS011;22445;52.100;5.176;2023-08-07T00:54:04;10.38;;;3.13;;
36411;SDS011;22445;52.100;5.176;2023-08-07T00:56:30;7.18;;;2.80;;
36411;SDS011;22445;52.100;5.176;2023-08-07T00:58:57;10.05;;;3.35;;
36411;SDS011;22445;52.100;5.176;2023-08-07T01:01:26;7.88;;;2.47;;
36411;SDS011;22445;52.100;5.176;2023-08-07T01:03:51;11.32;;;2.88;;
36411;SDS011;22445;52.100;5.176;2023-08-07T01:06:17;9.40;;;2.00;;
36411;SDS011;22445;52.100;5.176;2023-08-07T01:08:43;9.05;;;2.45;;
36411;SDS011;22445;52.100;5.176;2023-08-07T01:19:49;10.48;;;2.28;;
36411;SDS011;22445;52.100;5.176;2023-08-07T01:22:17;16.73;;;2.70;;
36411;SDS011;22445;52.100;5.176;2023-08-07T01:24:45;8.80;;;2.03;;
36411;SDS011;22445;52.100;5.176;2023-08-07T01:27:17;7.70;;;2.35;;
36411;SDS011;22445;52.100;5.176;2023-08-07T01:32:59;10.00;;;2.25;;
36411;SDS011;22445;52.100;5.176;2023-08-07T01:35:49;13.05;;;2.65;;
36411;SDS011;22445;52.100;5.176;2023-08-07T01:38:17;11.05;;;2.45;;
36411;SDS011;22445;52.100;5.176;2023-08-07T01:40:44;6.90;;;2.20;;
36411;SDS011;22445;52.100;5.176;2023-08-07T01:43:10;5.50;;;2.08;;
36411;SDS011;22445;52.100;5.176;2023-08-07T01:45:36;7.93;;;1.77;;
36411;SDS011;22445;52.100;5.176;2023-08-07T01:48:01;8.95;;;2.22;;
36411;SDS011;22445;52.100;5.176;2023-08-07T01:50:27;8.57;;;2.55;;
36411;SDS011;22445;52.100;5.176;2023-08-07T01:52:53;3.63;;;1.85;;
36411;SDS011;22445;52.100;5.176;2023-08-07T01:55:19;8.70;;;1.95;;
36411;SDS011;22445;52.100;5.176;2023-08-07T01:57:46;6.82;;;2.03;;
36411;SDS011;22445;52.100;5.176;2023-08-07T02:00:11;5.80;;;1.90;;
36411;SDS011;22445;52.100;5.176;2023-08-07T02:02:37;8.63;;;2.10;;
36411;SDS011;22445;52.100;5.176;2023-08-07T02:05:03;5.28;;;1.95;;
36411;SDS011;22445;52.100;5.176;2023-08-07T02:07:29;6.85;;;2.08;;
36411;SDS011;22445;52.100;5.176;2023-08-07T02:09:55;10.00;;;2.03;;
36411;SDS011;22445;52.100;5.176;2023-08-07T02:12:22;7.18;;;1.90;;
36411;SDS011;22445;52.100;5.176;2023-08-07T02:14:47;6.25;;;1.80;;
36411;SDS011;22445;52.100;5.176;2023-08-07T02:17:13;5.90;;;2.05;;
36411;SDS011;22445;52.100;5.176;2023-08-07T02:19:39;5.03;;;1.92;;
36411;SDS011;22445;52.100;5.176;2023-08-07T02:22:05;5.63;;;2.10;;
36411;SDS011;22445;52.100;5.176;2023-08-07T02:24:31;7.75;;;2.42;;
36411;SDS011;22445;52.100;5.176;2023-08-07T02:26:56;8.05;;;2.20;;
36411;SDS011;22445;52.100;5.176;2023-08-07T02:29:22;10.32;;;3.10;;
36411;SDS011;22445;52.100;5.176;2023-08-07T02:31:48;7.70;;;2.05;;
36411;SDS011;22445;52.100;5.176;2023-08-07T02:34:13;6.95;;;2.38;;
36411;SDS011;22445;52.100;5.176;2023-08-07T02:36:39;12.00;;;2.40;;
36411;SDS011;22445;52.100;5.176;2023-08-07T02:39:04;7.38;;;2.30;;
36411;SDS011;22445;52.100;5.176;2023-08-07T02:41:32;11.45;;;2.85;;
36411;SDS011;22445;52.100;5.176;2023-08-07T02:43:57;10.13;;;2.75;;
36411;SDS011;22445;52.100;5.176;2023-08-07T02:46:23;8.43;;;2.65;;
36411;SDS011;22445;52.100;5.176;2023-08-07T02:48:49;8.95;;;2.28;;
36411;SDS011;22445;52.100;5.176;2023-08-07T02:51:14;10.10;;;2.85;;
36411;SDS011;22445;52.100;5.176;2023-08-07T02:53:40;12.32;;;2.83;;
36411;SDS011;22445;52.100;5.176;2023-08-07T02:56:05;12.85;;;2.30;;
36411;SDS011;22445;52.100;5.176;2023-08-07T02:58:31;9.68;;;3.13;;
36411;SDS011;22445;52.100;5.176;2023-08-07T03:01:02;10.02;;;2.75;;
36411;SDS011;22445;52.100;5.176;2023-08-07T03:03:29;13.93;;;2.28;;
36411;SDS011;22445;52.100;5.176;2023-08-07T03:05:55;12.05;;;2.50;;
36411;SDS011;22445;52.100;5.176;2023-08-07T03:08:20;12.60;;;2.70;;
36411;SDS011;22445;52.100;5.176;2023-08-07T03:10:53;9.10;;;2.35;;
36411;SDS011;22445;52.100;5.176;2023-08-07T03:13:21;8.93;;;2.28;;
36411;SDS011;22445;52.100;5.176;2023-08-07T03:15:47;13.55;;;2.78;;
36411;SDS011;22445;52.100;5.176;2023-08-07T03:18:15;8.85;;;2.88;;
36411;SDS011;22445;52.100;5.176;2023-08-07T03:20:43;6.88;;;2.38;;
36411;SDS011;22445;52.100;5.176;2023-08-07T03:23:12;10.23;;;2.85;;
36411;SDS011;22445;52.100;5.176;2023-08-07T03:25:37;8.98;;;2.38;;
36411;SDS011;22445;52.100;5.176;2023-08-07T03:28:03;8.50;;;2.40;;
36411;SDS011;22445;52.100;5.176;2023-08-07T03:30:29;9.15;;;2.78;;
36411;SDS011;22445;52.100;5.176;2023-08-07T03:32:54;7.43;;;2.80;;
36411;SDS011;22445;52.100;5.176;2023-08-07T03:35:20;9.88;;;3.20;;
36411;SDS011;22445;52.100;5.176;2023-08-07T03:37:46;9.32;;;2.45;;
36411;SDS011;22445;52.100;5.176;2023-08-07T03:40:12;6.38;;;2.20;;
36411;SDS011;22445;52.100;5.176;2023-08-07T03:42:37;7.18;;;2.10;;
36411;SDS011;22445;52.100;5.176;2023-08-07T03:45:03;5.82;;;1.73;;
36411;SDS011;22445;52.100;5.176;2023-08-07T03:47:29;5.35;;;2.10;;
36411;SDS011;22445;52.100;5.176;2023-08-07T03:49:54;7.40;;;2.10;;
36411;SDS011;22445;52.100;5.176;2023-08-07T03:52:20;8.52;;;2.28;;
36411;SDS011;22445;52.100;5.176;2023-08-07T03:54:46;8.20;;;2.53;;
36411;SDS011;22445;52.100;5.176;2023-08-07T03:57:11;16.42;;;2.70;;
36411;SDS011;22445;52.100;5.176;2023-08-07T03:59:37;10.50;;;2.65;;
36411;SDS011;22445;52.100;5.176;2023-08-07T04:02:03;14.70;;;3.47;;
36411;SDS011;22445;52.100;5.176;2023-08-07T04:04:29;14.48;;;3.38;;
36411;SDS011;22445;52.100;5.176;2023-08-07T04:06:54;13.90;;;2.88;;
36411;SDS011;22445;52.100;5.176;2023-08-07T04:09:20;12.80;;;3.60;;
36411;SDS011;22445;52.100;5.176;2023-08-07T04:11:45;10.95;;;3.00;;
36411;SDS011;22445;52.100;5.176;2023-08-07T04:14:11;9.68;;;3.08;;
36411;SDS011;22445;52.100;5.176;2023-08-07T04:16:37;12.13;;;3.10;;
36411;SDS011;22445;52.100;5.176;2023-08-07T04:19:02;14.00;;;3.22;;
36411;SDS011;22445;52.100;5.176;2023-08-07T04:21:31;9.73;;;3.35;;
36411;SDS011;22445;52.100;5.176;2023-08-07T04:23:57;14.13;;;3.33;;
36411;SDS011;22445;52.100;5.176;2023-08-07T04:26:25;9.90;;;2.72;;
36411;SDS011;22445;52.100;5.176;2023-08-07T04:28:52;9.77;;;2.85;;
36411;SDS011;22445;52.100;5.176;2023-08-07T04:31:18;6.80;;;2.60;;
36411;SDS011;22445;52.100;5.176;2023-08-07T04:33:43;7.18;;;2.72;;
36411;SDS011;22445;52.100;5.176;2023-08-07T04:36:09;9.48;;;3.28;;
36411;SDS011;22445;52.100;5.176;2023-08-07T04:38:35;11.60;;;3.75;;
36411;SDS011;22445;52.100;5.176;2023-08-07T04:41:00;9.90;;;2.67;;
36411;SDS011;22445;52.100;5.176;2023-08-07T04:43:26;11.40;;;2.67;;
36411;SDS011;22445;52.100;5.176;2023-08-07T04:45:53;12.35;;;3.08;;
36411;SDS011;22445;52.100;5.176;2023-08-07T04:48:19;11.52;;;3.20;;
36411;SDS011;22445;52.100;5.176;2023-08-07T04:50:46;8.70;;;2.72;;
36411;SDS011;22445;52.100;5.176;2023-08-07T04:53:11;12.73;;;3.80;;
36411;SDS011;22445;52.100;5.176;2023-08-07T04:55:38;10.65;;;3.33;;
36411;SDS011;22445;52.100;5.176;2023-08-07T04:58:04;9.90;;;2.88;;
36411;SDS011;22445;52.100;5.176;2023-08-07T05:00:29;11.55;;;3.38;;
36411;SDS011;22445;52.100;5.176;2023-08-07T05:02:55;16.50;;;4.28;;
36411;SDS011;22445;52.100;5.176;2023-08-07T05:05:20;14.27;;;3.53;;
36411;SDS011;22445;52.100;5.176;2023-08-07T05:07:47;14.60;;;3.53;;
36411;SDS011;22445;52.100;5.176;2023-08-07T05:10:13;12.73;;;2.92;;
36411;SDS011;22445;52.100;5.176;2023-08-07T05:12:38;17.73;;;3.65;;
36411;SDS011;22445;52.100;5.176;2023-08-07T05:15:04;9.82;;;3.05;;
36411;SDS011;22445;52.100;5.176;2023-08-07T05:17:31;9.38;;;3.42;;
36411;SDS011;22445;52.100;5.176;2023-08-07T05:19:56;12.98;;;2.90;;
36411;SDS011;22445;52.100;5.176;2023-08-07T05:22:22;13.75;;;3.58;;
36411;SDS011;22445;52.100;5.176;2023-08-07T05:24:48;11.48;;;3.20;;
36411;SDS011;22445;52.100;5.176;2023-08-07T05:27:14;5.78;;;2.47;;
36411;SDS011;22445;52.100;5.176;2023-08-07T05:29:40;11.75;;;3.50;;
36411;SDS011;22445;52.100;5.176;2023-08-07T05:32:09;15.02;;;3.67;;
36411;SDS011;22445;52.100;5.176;2023-08-07T05:34:36;9.63;;;3.28;;
36411;SDS011;22445;52.100;5.176;2023-08-07T05:37:01;13.05;;;3.40;;
36411;SDS011;22445;52.100;5.176;2023-08-07T05:39:27;10.90;;;3.05;;
36411;SDS011;22445;52.100;5.176;2023-08-07T05:41:53;7.63;;;2.38;;
36411;SDS011;22445;52.100;5.176;2023-08-07T05:44:19;8.73;;;2.70;;
36411;SDS011;22445;52.100;5.176;2023-08-07T05:46:45;14.68;;;3.47;;
36411;SDS011;22445;52.100;5.176;2023-08-07T05:49:11;9.75;;;3.17;;
36411;SDS011;22445;52.100;5.176;2023-08-07T05:51:36;11.63;;;3.33;;
36411;SDS011;22445;52.100;5.176;2023-08-07T05:54:02;16.33;;;3.38;;
36411;SDS011;22445;52.100;5.176;2023-08-07T05:56:28;9.73;;;3.05;;
36411;SDS011;22445;52.100;5.176;2023-08-07T05:58:54;12.18;;;3.55;;
36411;SDS011;22445;52.100;5.176;2023-08-07T06:01:19;11.57;;;3.78;;
36411;SDS011;22445;52.100;5.176;2023-08-07T06:03:45;11.68;;;2.85;;
36411;SDS011;22445;52.100;5.176;2023-08-07T06:06:10;7.35;;;3.22;;
36411;SDS011;22445;52.100;5.176;2023-08-07T06:08:36;9.50;;;3.40;;
36411;SDS011;22445;52.100;5.176;2023-08-07T06:11:02;13.57;;;3.38;;
36411;SDS011;22445;52.100;5.176;2023-08-07T06:13:28;12.52;;;3.58;;
36411;SDS011;22445;52.100;5.176;2023-08-07T06:15:54;10.07;;;3.10;;
36411;SDS011;22445;52.100;5.176;2023-08-07T06:18:20;11.30;;;3.05;;
36411;SDS011;22445;52.100;5.176;2023-08-07T06:20:46;11.52;;;3.60;;
36411;SDS011;22445;52.100;5.176;2023-08-07T06:23:11;10.20;;;3.03;;
36411;SDS011;22445;52.100;5.176;2023-08-07T06:25:37;13.18;;;3.20;;
36411;SDS011;22445;52.100;5.176;2023-08-07T06:28:03;13.88;;;3.75;;
36411;SDS011;22445;52.100;5.176;2023-08-07T06:30:30;6.75;;;2.35;;
36411;SDS011;22445;52.100;5.176;2023-08-07T06:32:56;6.47;;;2.45;;
36411;SDS011;22445;52.100;5.176;2023-08-07T06:35:22;6.65;;;2.10;;
36411;SDS011;22445;52.100;5.176;2023-08-07T06:37:48;7.53;;;2.33;;
36411;SDS011;22445;52.100;5.176;2023-08-07T06:40:13;12.45;;;3.22;;
36411;SDS011;22445;52.100;5.176;2023-08-07T06:42:39;8.23;;;2.85;;
36411;SDS011;22445;52.100;5.176;2023-08-07T06:45:05;10.18;;;2.30;;
36411;SDS011;22445;52.100;5.176;2023-08-07T06:47:31;7.88;;;2.75;;
36411;SDS011;22445;52.100;5.176;2023-08-07T06:49:57;13.48;;;2.80;;
36411;SDS011;22445;52.100;5.176;2023-08-07T06:52:23;7.85;;;2.38;;
36411;SDS011;22445;52.100;5.176;2023-08-07T06:54:48;5.20;;;1.80;;
36411;SDS011;22445;52.100;5.176;2023-08-07T06:57:14;8.70;;;2.45;;
36411;SDS011;22445;52.100;5.176;2023-08-07T06:59:40;9.80;;;2.15;;
36411;SDS011;22445;52.100;5.176;2023-08-07T07:02:06;7.10;;;2.25;;
36411;SDS011;22445;52.100;5.176;2023-08-07T07:04:32;5.35;;;1.80;;
36411;SDS011;22445;52.100;5.176;2023-08-07T07:06:58;4.60;;;2.13;;
36411;SDS011;22445;52.100;5.176;2023-08-07T07:09:24;5.35;;;2.28;;
36411;SDS011;22445;52.100;5.176;2023-08-07T07:11:49;9.05;;;2.17;;
36411;SDS011;22445;52.100;5.176;2023-08-07T07:14:15;6.85;;;2.10;;
36411;SDS011;22445;52.100;5.176;2023-08-07T07:16:41;5.60;;;2.45;;
36411;SDS011;22445;52.100;5.176;2023-08-07T07:19:07;8.50;;;2.33;;
36411;SDS011;22445;52.100;5.176;2023-08-07T07:21:34;6.60;;;2.60;;
36411;SDS011;22445;52.100;5.176;2023-08-07T07:24:03;10.18;;;3.03;;
36411;SDS011;22445;52.100;5.176;2023-08-07T07:26:29;7.50;;;2.60;;
36411;SDS011;22445;52.100;5.176;2023-08-07T07:28:55;11.88;;;2.90;;
36411;SDS011;22445;52.100;5.176;2023-08-07T07:31:21;11.20;;;2.90;;
36411;SDS011;22445;52.100;5.176;2023-08-07T07:33:47;8.30;;;2.88;;
36411;SDS011;22445;52.100;5.176;2023-08-07T07:36:14;18.15;;;3.20;;
36411;SDS011;22445;52.100;5.176;2023-08-07T07:38:41;8.35;;;2.92;;
36411;SDS011;22445;52.100;5.176;2023-08-07T07:41:06;8.02;;;2.67;;
36411;SDS011;22445;52.100;5.176;2023-08-07T07:43:35;12.35;;;2.65;;
36411;SDS011;22445;52.100;5.176;2023-08-07T07:46:01;9.15;;;2.20;;
36411;SDS011;22445;52.100;5.176;2023-08-07T07:48:26;9.05;;;2.33;;
36411;SDS011;22445;52.100;5.176;2023-08-07T07:50:57;9.95;;;2.60;;
36411;SDS011;22445;52.100;5.176;2023-08-07T07:53:24;5.85;;;2.10;;
36411;SDS011;22445;52.100;5.176;2023-08-07T07:55:50;8.82;;;2.58;;
36411;SDS011;22445;52.100;5.176;2023-08-07T07:58:15;7.30;;;2.47;;
36411;SDS011;22445;52.100;5.176;2023-08-07T08:00:41;8.38;;;2.15;;
36411;SDS011;22445;52.100;5.176;2023-08-07T08:03:07;11.48;;;2.70;;
36411;SDS011;22445;52.100;5.176;2023-08-07T08:05:33;8.82;;;1.80;;
36411;SDS011;22445;52.100;5.176;2023-08-07T08:08:00;6.68;;;1.95;;
36411;SDS011;22445;52.100;5.176;2023-08-07T08:10:26;6.70;;;2.08;;
36411;SDS011;22445;52.100;5.176;2023-08-07T08:12:55;5.03;;;2.00;;
36411;SDS011;22445;52.100;5.176;2023-08-07T08:15:21;6.55;;;1.73;;
36411;SDS011;22445;52.100;5.176;2023-08-07T08:17:47;6.95;;;2.00;;
36411;SDS011;22445;52.100;5.176;2023-08-07T08:20:14;6.85;;;1.85;;
36411;SDS011;22445;52.100;5.176;2023-08-07T08:22:43;8.05;;;2.20;;
36411;SDS011;22445;52.100;5.176;2023-08-07T08:25:10;8.55;;;1.70;;
36411;SDS011;22445;52.100;5.176;2023-08-07T08:27:39;8.48;;;1.98;;
36411;SDS011;22445;52.100;5.176;2023-08-07T08:30:05;5.70;;;1.85;;
36411;SDS011;22445;52.100;5.176;2023-08-07T08:32:32;9.40;;;2.30;;
36411;SDS011;22445;52.100;5.176;2023-08-07T08:34:58;5.85;;;2.08;;
36411;SDS011;22445;52.100;5.176;2023-08-07T08:37:23;4.93;;;1.63;;
36411;SDS011;22445;52.100;5.176;2023-08-07T08:39:49;5.25;;;1.98;;
36411;SDS011;22445;52.100;5.176;2023-08-07T08:42:15;8.75;;;1.83;;
36411;SDS011;22445;52.100;5.176;2023-08-07T08:44:56;5.22;;;1.90;;
36411;SDS011;22445;52.100;5.176;2023-08-07T08:47:22;6.22;;;1.73;;
36411;SDS011;22445;52.100;5.176;2023-08-07T08:49:51;5.72;;;1.75;;
36411;SDS011;22445;52.100;5.176;2023-08-07T08:52:22;2.95;;;1.60;;
36411;SDS011;22445;52.100;5.176;2023-08-07T08:54:48;8.95;;;2.25;;
36411;SDS011;22445;52.100;5.176;2023-08-07T08:57:14;7.75;;;1.90;;
36411;SDS011;22445;52.100;5.176;2023-08-07T08:59:41;5.75;;;1.67;;
36411;SDS011;22445;52.100;5.176;2023-08-07T09:02:07;5.78;;;2.28;;
36411;SDS011;22445;52.100;5.176;2023-08-07T09:04:33;5.80;;;1.70;;
36411;SDS011;22445;52.100;5.176;2023-08-07T09:07:00;5.32;;;1.40;;
36411;SDS011;22445;52.100;5.176;2023-08-07T09:09:26;6.28;;;1.92;;
36411;SDS011;22445;52.100;5.176;2023-08-07T09:11:52;6.13;;;1.50;;
36411;SDS011;22445;52.100;5.176;2023-08-07T09:14:20;5.68;;;1.63;;
36411;SDS011;22445;52.100;5.176;2023-08-07T09:16:48;6.32;;;2.78;;
36411;SDS011;22445;52.100;5.176;2023-08-07T09:19:13;7.93;;;1.60;;
36411;SDS011;22445;52.100;5.176;2023-08-07T09:21:39;5.65;;;1.67;;
36411;SDS011;22445;52.100;5.176;2023-08-07T09:24:05;4.68;;;1.60;;
36411;SDS011;22445;52.100;5.176;2023-08-07T09:26:34;5.03;;;1.30;;
36411;SDS011;22445;52.100;5.176;2023-08-07T09:28:59;4.60;;;1.48;;
36411;SDS011;22445;52.100;5.176;2023-08-07T09:31:27;6.32;;;1.67;;
36411;SDS011;22445;52.100;5.176;2023-08-07T09:33:52;4.57;;;1.85;;
36411;SDS011;22445;52.100;5.176;2023-08-07T09:36:18;4.40;;;2.10;;
36411;SDS011;22445;52.100;5.176;2023-08-07T09:38:48;6.13;;;1.52;;
36411;SDS011;22445;52.100;5.176;2023-08-07T09:41:17;5.55;;;1.33;;
36411;SDS011;22445;52.100;5.176;2023-08-07T09:43:44;5.75;;;1.50;;
36411;SDS011;22445;52.100;5.176;2023-08-07T09:46:10;5.53;;;1.73;;
36411;SDS011;22445;52.100;5.176;2023-08-07T09:48:39;3.17;;;1.38;;
36411;SDS011;22445;52.100;5.176;2023-08-07T09:51:06;6.75;;;1.50;;
36411;SDS011;22445;52.100;5.176;2023-08-07T09:53:31;4.57;;;1.55;;
36411;SDS011;22445;52.100;5.176;2023-08-07T09:55:57;8.55;;;1.65;;
36411;SDS011;22445;52.100;5.176;2023-08-07T09:58:23;7.65;;;2.35;;
36411;SDS011;22445;52.100;5.176;2023-08-07T10:00:49;6.47;;;2.10;;
36411;SDS011;22445;52.100;5.176;2023-08-07T10:03:18;10.75;;;1.88;;
36411;SDS011;22445;52.100;5.176;2023-08-07T10:05:44;5.78;;;1.65;;
36411;SDS011;22445;52.100;5.176;2023-08-07T10:08:10;7.13;;;1.80;;
36411;SDS011;22445;52.100;5.176;2023-08-07T10:10:37;7.47;;;1.58;;
36411;SDS011;22445;52.100;5.176;2023-08-07T10:13:03;5.88;;;1.80;;
36411;SDS011;22445;52.100;5.176;2023-08-07T10:15:29;3.30;;;1.27;;
36411;SDS011;22445;52.100;5.176;2023-08-07T10:17:57;4.47;;;1.90;;
36411;SDS011;22445;52.100;5.176;2023-08-07T10:20:24;4.55;;;1.13;;
36411;SDS011;22445;52.100;5.176;2023-08-07T10:22:52;5.70;;;1.55;;
36411;SDS011;22445;52.100;5.176;2023-08-07T10:25:20;6.40;;;1.60;;
36411;SDS011;22445;52.100;5.176;2023-08-07T10:27:46;5.57;;;1.85;;
36411;SDS011;22445;52.100;5.176;2023-08-07T10:30:14;3.35;;;1.40;;
36411;SDS011;22445;52.100;5.176;2023-08-07T10:32:41;4.47;;;1.48;;
36411;SDS011;22445;52.100;5.176;2023-08-07T10:35:08;5.93;;;1.70;;
36411;SDS011;22445;52.100;5.176;2023-08-07T10:37:41;4.00;;;1.25;;
36411;SDS011;22445;52.100;5.176;2023-08-07T10:40:09;4.97;;;1.73;;
36411;SDS011;22445;52.100;5.176;2023-08-07T10:45:24;5.03;;;1.17;;
36411;SDS011;22445;52.100;5.176;2023-08-07T10:53:41;4.40;;;1.30;;
36411;SDS011;22445;52.100;5.176;2023-08-07T10:56:16;5.15;;;1.40;;
36411;SDS011;22445;52.100;5.176;2023-08-07T10:58:42;8.80;;;1.73;;
36411;SDS011;22445;52.100;5.176;2023-08-07T11:04:16;4.55;;;1.70;;
36411;SDS011;22445;52.100;5.176;2023-08-07T11:06:43;5.40;;;1.92;;
36411;SDS011;22445;52.100;5.176;2023-08-07T11:09:10;4.88;;;1.42;;
36411;SDS011;22445;52.100;5.176;2023-08-07T11:11:36;4.50;;;1.33;;
36411;SDS011;22445;52.100;5.176;2023-08-07T11:14:11;4.85;;;1.38;;
36411;SDS011;22445;52.100;5.176;2023-08-07T11:16:38;5.75;;;1.38;;
36411;SDS011;22445;52.100;5.176;2023-08-07T11:19:04;4.45;;;1.85;;
36411;SDS011;22445;52.100;5.176;2023-08-07T11:21:33;6.07;;;1.85;;
36411;SDS011;22445;52.100;5.176;2023-08-07T11:23:59;7.38;;;1.50;;
36411;SDS011;22445;52.100;5.176;2023-08-07T11:26:25;4.68;;;1.48;;
36411;SDS011;22445;52.100;5.176;2023-08-07T11:28:53;6.60;;;1.30;;
36411;SDS011;22445;52.100;5.176;2023-08-07T11:31:19;5.78;;;1.70;;
36411;SDS011;22445;52.100;5.176;2023-08-07T11:33:46;4.72;;;1.40;;
36411;SDS011;22445;52.100;5.176;2023-08-07T11:36:15;5.38;;;1.52;;
36411;SDS011;22445;52.100;5.176;2023-08-07T11:38:41;5.65;;;1.67;;
36411;SDS011;22445;52.100;5.176;2023-08-07T11:41:08;4.25;;;1.70;;
36411;SDS011;22445;52.100;5.176;2023-08-07T11:43:35;3.75;;;1.58;;
36411;SDS011;22445;52.100;5.176;2023-08-07T11:46:02;2.28;;;1.00;;
36411;SDS011;22445;52.100;5.176;2023-08-07T11:48:30;3.08;;;1.40;;
36411;SDS011;22445;52.100;5.176;2023-08-07T11:50:57;4.85;;;1.35;;
36411;SDS011;22445;52.100;5.176;2023-08-07T11:53:27;6.47;;;1.92;;
36411;SDS011;22445;52.100;5.176;2023-08-07T11:56:12;3.17;;;1.27;;
36411;SDS011;22445;52.100;5.176;2023-08-07T11:58:46;3.55;;;1.60;;
36411;SDS011;22445;52.100;5.176;2023-08-07T12:01:14;5.15;;;1.65;;
36411;SDS011;22445;52.100;5.176;2023-08-07T12:03:53;3.58;;;0.98;;
36411;SDS011;22445;52.100;5.176;2023-08-07T12:06:21;4.85;;;1.67;;
36411;SDS011;22445;52.100;5.176;2023-08-07T12:08:48;3.75;;;1.50;;
36411;SDS011;22445;52.100;5.176;2023-08-07T12:11:17;5.05;;;1.23;;
36411;SDS011;22445;52.100;5.176;2023-08-07T12:13:44;6.50;;;1.70;;
36411;SDS011;22445;52.100;5.176;2023-08-07T12:16:10;4.13;;;1.17;;
36411;SDS011;22445;52.100;5.176;2023-08-07T12:18:52;2.63;;;1.20;;
36411;SDS011;22445;52.100;5.176;2023-08-07T12:21:21;2.95;;;1.35;;
36411;SDS011;22445;52.100;5.176;2023-08-07T12:23:50;3.72;;;1.35;;
36411;SDS011;22445;52.100;5.176;2023-08-07T12:26:17;3.60;;;1.40;;
36411;SDS011;22445;52.100;5.176;2023-08-07T12:28:43;2.35;;;1.23;;
36411;SDS011;22445;52.100;5.176;2023-08-07T12:31:09;6.65;;;1.77;;
36411;SDS011;22445;52.100;5.176;2023-08-07T12:33:35;5.82;;;1.40;;
36411;SDS011;22445;52.100;5.176;2023-08-07T12:36:00;4.03;;;1.58;;
36411;SDS011;22445;52.100;5.176;2023-08-07T12:38:27;3.55;;;1.23;;
36411;SDS011;22445;52.100;5.176;2023-08-07T12:40:53;3.33;;;1.25;;
36411;SDS011;22445;52.100;5.176;2023-08-07T12:43:19;3.58;;;1.25;;
36411;SDS011;22445;52.100;5.176;2023-08-07T12:45:44;5.03;;;1.38;;
36411;SDS011;22445;52.100;5.176;2023-08-07T12:48:10;3.10;;;1.10;;
36411;SDS011;22445;52.100;5.176;2023-08-07T12:50:36;2.63;;;1.35;;
36411;SDS011;22445;52.100;5.176;2023-08-07T12:53:02;6.88;;;1.40;;
36411;SDS011;22445;52.100;5.176;2023-08-07T12:55:28;3.45;;;1.10;;
36411;SDS011;22445;52.100;5.176;2023-08-07T12:57:55;3.42;;;0.98;;
36411;SDS011;22445;52.100;5.176;2023-08-07T13:00:21;2.83;;;1.00;;
36411;SDS011;22445;52.100;5.176;2023-08-07T13:02:48;2.75;;;1.08;;
36411;SDS011;22445;52.100;5.176;2023-08-07T13:05:15;3.55;;;1.08;;
36411;SDS011;22445;52.100;5.176;2023-08-07T13:07:43;2.65;;;1.02;;
36411;SDS011;22445;52.100;5.176;2023-08-07T13:10:10;3.95;;;0.98;;
36411;SDS011;22445;52.100;5.176;2023-08-07T13:12:38;2.78;;;0.95;;
36411;SDS011;22445;52.100;5.176;2023-08-07T13:15:05;2.13;;;1.08;;
36411;SDS011;22445;52.100;5.176;2023-08-07T13:17:33;2.95;;;0.82;;
36411;SDS011;22445;52.100;5.176;2023-08-07T13:19:59;3.13;;;1.10;;
36411;SDS011;22445;52.100;5.176;2023-08-07T13:22:25;3.92;;;1.52;;
36411;SDS011;22445;52.100;5.176;2023-08-07T13:24:52;3.58;;;1.20;;
36411;SDS011;22445;52.100;5.176;2023-08-07T13:27:17;3.58;;;1.35;;
36411;SDS011;22445;52.100;5.176;2023-08-07T13:29:43;1.95;;;0.82;;
36411;SDS011;22445;52.100;5.176;2023-08-07T13:32:09;2.63;;;1.20;;
36411;SDS011;22445;52.100;5.176;2023-08-07T13:34:35;5.97;;;1.13;;
36411;SDS011;22445;52.100;5.176;2023-08-07T13:37:02;3.17;;;1.23;;
36411;SDS011;22445;52.100;5.176;2023-08-07T13:39:28;2.47;;;0.80;;
36411;SDS011;22445;52.100;5.176;2023-08-07T13:41:54;3.35;;;0.93;;
36411;SDS011;22445;52.100;5.176;2023-08-07T13:44:19;2.47;;;0.77;;
36411;SDS011;22445;52.100;5.176;2023-08-07T13:46:48;3.05;;;1.20;;
36411;SDS011;22445;52.100;5.176;2023-08-07T13:49:14;8.95;;;1.23;;
36411;SDS011;22445;52.100;5.176;2023-08-07T13:51:43;3.08;;;1.20;;
36411;SDS011;22445;52.100;5.176;2023-08-07T13:54:08;2.40;;;0.75;;
36411;SDS011;22445;52.100;5.176;2023-08-07T13:56:35;3.33;;;0.98;;
36411;SDS011;22445;52.100;5.176;2023-08-07T13:59:01;2.10;;;0.77;;
36411;SDS011;22445;52.100;5.176;2023-08-07T14:01:26;2.65;;;0.95;;
36411;SDS011;22445;52.100;5.176;2023-08-07T14:03:53;1.27;;;0.80;;
36411;SDS011;22445;52.100;5.176;2023-08-07T14:06:19;4.43;;;1.00;;
36411;SDS011;22445;52.100;5.176;2023-08-07T14:08:45;1.40;;;0.80;;
36411;SDS011;22445;52.100;5.176;2023-08-07T14:11:11;3.90;;;1.10;;
36411;SDS011;22445;52.100;5.176;2023-08-07T14:13:39;2.70;;;1.35;;
36411;SDS011;22445;52.100;5.176;2023-08-07T14:16:05;4.32;;;1.05;;
36411;SDS011;22445;52.100;5.176;2023-08-07T14:18:32;2.30;;;1.13;;
36411;SDS011;22445;52.100;5.176;2023-08-07T14:20:57;2.85;;;1.00;;
36411;SDS011;22445;52.100;5.176;2023-08-07T14:23:23;1.38;;;0.70;;
36411;SDS011;22445;52.100;5.176;2023-08-07T14:25:49;3.97;;;0.90;;
36411;SDS011;22445;52.100;5.176;2023-08-07T14:28:16;2.30;;;1.30;;
36411;SDS011;22445;52.100;5.176;2023-08-07T14:30:42;2.50;;;0.95;;
36411;SDS011;22445;52.100;5.176;2023-08-07T14:33:08;2.75;;;1.15;;
36411;SDS011;22445;52.100;5.176;2023-08-07T14:35:33;2.03;;;0.93;;
36411;SDS011;22445;52.100;5.176;2023-08-07T14:37:59;1.83;;;0.75;;
36411;SDS011;22445;52.100;5.176;2023-08-07T14:40:25;2.00;;;1.00;;
36411;SDS011;22445;52.100;5.176;2023-08-07T14:42:51;1.58;;;1.10;;
36411;SDS011;22445;52.100;5.176;2023-08-07T14:45:17;2.47;;;0.98;;
36411;SDS011;22445;52.100;5.176;2023-08-07T14:47:43;3.78;;;1.20;;
36411;SDS011;22445;52.100;5.176;2023-08-07T14:50:09;3.13;;;1.30;;
36411;SDS011;22445;52.100;5.176;2023-08-07T14:52:35;2.92;;;1.30;;
36411;SDS011;22445;52.100;5.176;2023-08-07T14:55:02;3.60;;;1.50;;
36411;SDS011;22445;52.100;5.176;2023-08-07T14:57:28;3.17;;;1.38;;
36411;SDS011;22445;52.100;5.176;2023-08-07T14:59:54;2.25;;;1.38;;
36411;SDS011;22445;52.100;5.176;2023-08-07T15:02:19;2.55;;;1.30;;